sensor_id;sensor_type;location;lat;lon;timestamp;noise_LAeq;noise_LA_min;noise_LA_max;noise_LA01;noise_LA95
68599;Laerm;18038;50.166;18.908;2024-01-16T00:00:28;40.18;31.57;56.31;;
68599;Laerm;18038;50.166;18.908;2024-01-16T00:03:37;35.79;31.54;49.26;;
68599;Laerm;18038;50.166;18.908;2024-01-16T00:06:45;35.87;31.74;52.79;;
68599;Laerm;18038;50.166;18.908;2024-01-16T00:09:55;39.83;31.52;58.98;;
68599;Laerm;18038;50.166;18.908;2024-01-16T00:13:06;39.75;31.72;59.37;;
68599;Laerm;18038;50.166;18.908;2024-01-16T00:16:14;37.11;31.77;58.22;;
68599;Laerm;18038;50.166;18.908;2024-01-16T00:19:27;43.00;31.88;58.50;;
68599;Laerm;18038;50.166;18.908;2024-01-16T00:22:35;37.78;31.71;50.71;;
68599;Laerm;18038;50.166;18.908;2024-01-16T00:25:45;35.32;31.60;49.11;;
68599;Laerm;18038;50.166;18.908;2024-01-16T00:28:53;34.26;31.47;49.46;;
68599;Laerm;18038;50.166;18.908;2024-01-16T00:32:10;34.20;31.48;47.43;;
68599;Laerm;18038;50.166;18.908;2024-01-16T00:35:23;33.15;31.51;43.79;;
68599;Laerm;18038;50.166;18.908;2024-01-16T00:38:33;33.87;31.36;46.61;;
68599;Laerm;18038;50.166;18.908;2024-01-16T00:41:43;32.53;31.36;43.64;;
68599;Laerm;18038;50.166;18.908;2024-01-16T00:44:51;32.80;31.35;46.22;;
68599;Laerm;18038;50.166;18.908;2024-01-16T00:47:59;37.56;31.41;54.79;;
68599;Laerm;18038;50.166;18.908;2024-01-16T00:51:13;35.91;31.37;51.05;;
68599;Laerm;18038;50.166;18.908;2024-01-16T00:54:21;34.35;31.33;49.98;;
68599;Laerm;18038;50.166;18.908;2024-01-16T00:57:31;35.68;31.44;52.63;;
68599;Laerm;18038;50.166;18.908;2024-01-16T01:00:39;32.29;31.30;42.63;;
68599;Laerm;18038;50.166;18.908;2024-01-16T01:03:46;31.91;31.26;37.52;;
68599;Laerm;18038;50.166;18.908;2024-01-16T01:06:54;32.12;31.21;37.54;;
68599;Laerm;18038;50.166;18.908;2024-01-16T01:10:05;34.09;31.32;52.38;;
68599;Laerm;18038;50.166;18.908;2024-01-16T01:13:16;33.09;31.37;45.71;;
68599;Laerm;18038;50.166;18.908;2024-01-16T01:16:23;31.98;31.34;36.42;;
68599;Laerm;18038;50.166;18.908;2024-01-16T01:19:31;32.37;31.32;41.63;;
68599;Laerm;18038;50.166;18.908;2024-01-16T01:22:38;31.82;31.27;33.40;;
68599;Laerm;18038;50.166;18.908;2024-01-16T01:25:49;32.10;31.33;38.70;;
68599;Laerm;18038;50.166;18.908;2024-01-16T01:29:05;32.63;31.34;43.05;;
68599;Laerm;18038;50.166;18.908;2024-01-16T01:32:23;31.97;31.35;40.04;;
68599;Laerm;18038;50.166;18.908;2024-01-16T01:35:49;32.45;31.38;42.12;;
68599;Laerm;18038;50.166;18.908;2024-01-16T01:39:00;34.02;31.21;49.35;;
68599;Laerm;18038;50.166;18.908;2024-01-16T01:42:08;32.77;31.32;44.65;;
68599;Laerm;18038;50.166;18.908;2024-01-16T01:45:24;37.56;31.46;57.33;;
68599;Laerm;18038;50.166;18.908;2024-01-16T01:48:33;36.19;31.49;51.91;;
68599;Laerm;18038;50.166;18.908;2024-01-16T01:51:43;34.46;31.59;47.21;;
68599;Laerm;18038;50.166;18.908;2024-01-16T01:54:52;35.30;31.50;50.03;;
68599;Laerm;18038;50.166;18.908;2024-01-16T01:58:01;34.79;31.67;47.43;;
68599;Laerm;18038;50.166;18.908;2024-01-16T02:01:13;33.95;31.61;55.79;;
68599;Laerm;18038;50.166;18.908;2024-01-16T02:04:24;35.84;31.62;51.76;;
68599;Laerm;18038;50.166;18.908;2024-01-16T02:07:35;35.28;31.57;47.30;;
68599;Laerm;18038;50.166;18.908;2024-01-16T02:10:50;35.11;31.67;48.12;;
68599;Laerm;18038;50.166;18.908;2024-01-16T02:14:08;33.10;31.48;48.52;;
68599;Laerm;18038;50.166;18.908;2024-01-16T02:17:20;33.90;31.73;46.30;;
68599;Laerm;18038;50.166;18.908;2024-01-16T02:20:28;33.47;31.42;46.00;;
68599;Laerm;18038;50.166;18.908;2024-01-16T02:23:38;34.95;31.75;48.78;;
68599;Laerm;18038;50.166;18.908;2024-01-16T02:26:47;41.19;31.77;59.35;;
68599;Laerm;18038;50.166;18.908;2024-01-16T02:29:58;33.37;31.67;46.50;;
68599;Laerm;18038;50.166;18.908;2024-01-16T02:33:10;34.27;31.59;48.61;;
68599;Laerm;18038;50.166;18.908;2024-01-16T02:36:18;34.49;31.72;49.99;;
68599;Laerm;18038;50.166;18.908;2024-01-16T02:39:29;37.08;31.81;53.18;;
68599;Laerm;18038;50.166;18.908;2024-01-16T02:42:38;39.41;31.78;54.18;;
68599;Laerm;18038;50.166;18.908;2024-01-16T02:45:46;38.48;31.77;55.05;;
68599;Laerm;18038;50.166;18.908;2024-01-16T02:48:54;41.21;32.06;57.75;;
68599;Laerm;18038;50.166;18.908;2024-01-16T02:52:02;36.03;31.69;51.85;;
68599;Laerm;18038;50.166;18.908;2024-01-16T02:55:12;38.54;31.63;56.38;;
68599;Laerm;18038;50.166;18.908;2024-01-16T02:58:21;33.96;31.56;47.91;;
68599;Laerm;18038;50.166;18.908;2024-01-16T03:01:28;34.47;31.69;46.35;;
68599;Laerm;18038;50.166;18.908;2024-01-16T03:04:36;38.67;31.67;57.66;;
68599;Laerm;18038;50.166;18.908;2024-01-16T03:07:43;33.37;31.50;43.26;;
68599;Laerm;18038;50.166;18.908;2024-01-16T03:10:54;35.52;31.65;51.52;;
68599;Laerm;18038;50.166;18.908;2024-01-16T03:14:05;37.66;31.55;52.37;;
68599;Laerm;18038;50.166;18.908;2024-01-16T03:17:20;34.78;31.49;48.57;;
68599;Laerm;18038;50.166;18.908;2024-01-16T03:20:28;36.80;31.45;56.84;;
68599;Laerm;18038;50.166;18.908;2024-01-16T03:23:36;35.95;31.52;52.06;;
68599;Laerm;18038;50.166;18.908;2024-01-16T03:26:46;33.33;31.64;41.10;;
68599;Laerm;18038;50.166;18.908;2024-01-16T03:29:55;34.93;31.75;50.86;;
68599;Laerm;18038;50.166;18.908;2024-01-16T03:33:09;37.12;31.72;52.02;;
68599;Laerm;18038;50.166;18.908;2024-01-16T03:36:24;37.55;31.79;47.89;;
68599;Laerm;18038;50.166;18.908;2024-01-16T03:39:34;40.75;32.29;60.39;;
68599;Laerm;18038;50.166;18.908;2024-01-16T03:42:44;37.80;31.87;55.14;;
68599;Laerm;18038;50.166;18.908;2024-01-16T03:45:52;34.81;31.90;50.81;;
68599;Laerm;18038;50.166;18.908;2024-01-16T03:49:00;39.05;31.93;55.40;;
68599;Laerm;18038;50.166;18.908;2024-01-16T03:52:08;41.12;32.27;55.85;;
68599;Laerm;18038;50.166;18.908;2024-01-16T03:55:23;39.66;32.23;54.85;;
68599;Laerm;18038;50.166;18.908;2024-01-16T03:58:50;38.15;32.24;53.94;;
68599;Laerm;18038;50.166;18.908;2024-01-16T04:01:58;42.31;32.24;59.21;;
68599;Laerm;18038;50.166;18.908;2024-01-16T04:05:05;39.92;32.44;57.15;;
68599;Laerm;18038;50.166;18.908;2024-01-16T04:08:14;44.76;32.38;63.36;;
68599;Laerm;18038;50.166;18.908;2024-01-16T04:11:21;37.94;32.24;50.29;;
68599;Laerm;18038;50.166;18.908;2024-01-16T04:14:32;40.47;32.89;56.00;;
68599;Laerm;18038;50.166;18.908;2024-01-16T04:17:40;42.82;32.97;59.37;;
68599;Laerm;18038;50.166;18.908;2024-01-16T04:20:48;41.74;32.67;61.75;;
68599;Laerm;18038;50.166;18.908;2024-01-16T04:23:55;40.81;32.57;56.27;;
68599;Laerm;18038;50.166;18.908;2024-01-16T04:27:04;39.99;32.78;50.22;;
68599;Laerm;18038;50.166;18.908;2024-01-16T04:30:14;41.63;32.63;63.15;;
68599;Laerm;18038;50.166;18.908;2024-01-16T04:33:25;38.34;32.79;46.86;;
68599;Laerm;18038;50.166;18.908;2024-01-16T04:36:32;39.80;32.71;49.38;;
68599;Laerm;18038;50.166;18.908;2024-01-16T04:39:40;41.91;32.82;61.34;;
68599;Laerm;18038;50.166;18.908;2024-01-16T04:42:48;40.00;32.80;55.37;;
68599;Laerm;18038;50.166;18.908;2024-01-16T04:45:58;39.83;33.09;49.88;;
68599;Laerm;18038;50.166;18.908;2024-01-16T04:49:06;38.73;32.83;48.26;;
68599;Laerm;18038;50.166;18.908;2024-01-16T04:52:15;38.21;32.83;49.27;;
68599;Laerm;18038;50.166;18.908;2024-01-16T04:55:22;39.70;33.07;48.30;;
68599;Laerm;18038;50.166;18.908;2024-01-16T04:58:30;39.57;32.58;49.34;;
68599;Laerm;18038;50.166;18.908;2024-01-16T05:01:40;39.70;32.76;56.07;;
68599;Laerm;18038;50.166;18.908;2024-01-16T05:04:51;37.76;32.48;45.60;;
68599;Laerm;18038;50.166;18.908;2024-01-16T05:08:01;38.63;32.68;48.09;;
68599;Laerm;18038;50.166;18.908;2024-01-16T05:11:10;37.83;32.52;46.52;;
68599;Laerm;18038;50.166;18.908;2024-01-16T05:14:18;39.01;32.73;51.83;;
68599;Laerm;18038;50.166;18.908;2024-01-16T05:17:32;40.82;33.38;50.48;;
68599;Laerm;18038;50.166;18.908;2024-01-16T05:20:40;41.27;32.94;48.30;;
68599;Laerm;18038;50.166;18.908;2024-01-16T05:23:48;41.62;32.72;55.38;;
68599;Laerm;18038;50.166;18.908;2024-01-16T05:26:56;40.34;32.86;50.01;;
68599;Laerm;18038;50.166;18.908;2024-01-16T05:30:07;37.48;32.78;46.62;;
68599;Laerm;18038;50.166;18.908;2024-01-16T05:33:17;40.01;32.81;56.78;;
68599;Laerm;18038;50.166;18.908;2024-01-16T05:36:27;40.05;32.61;51.55;;
68599;Laerm;18038;50.166;18.908;2024-01-16T05:39:34;38.67;32.74;47.95;;
68599;Laerm;18038;50.166;18.908;2024-01-16T05:42:42;44.87;34.91;58.29;;
68599;Laerm;18038;50.166;18.908;2024-01-16T05:45:49;41.50;33.80;55.73;;
68599;Laerm;18038;50.166;18.908;2024-01-16T05:49:00;37.41;32.59;44.33;;
68599;Laerm;18038;50.166;18.908;2024-01-16T05:52:08;40.14;32.89;52.36;;
68599;Laerm;18038;50.166;18.908;2024-01-16T05:55:16;38.71;33.50;43.74;;
68599;Laerm;18038;50.166;18.908;2024-01-16T05:58:29;38.91;33.27;48.19;;
68599;Laerm;18038;50.166;18.908;2024-01-16T06:01:41;38.11;32.82;46.87;;
68599;Laerm;18038;50.166;18.908;2024-01-16T06:04:51;41.90;33.77;52.90;;
68599;Laerm;18038;50.166;18.908;2024-01-16T06:07:59;38.55;32.66;46.16;;
68599;Laerm;18038;50.166;18.908;2024-01-16T06:11:07;38.19;32.70;43.70;;
68599;Laerm;18038;50.166;18.908;2024-01-16T06:14:18;39.77;33.07;48.03;;
68599;Laerm;18038;50.166;18.908;2024-01-16T06:17:26;40.93;33.53;51.13;;
68599;Laerm;18038;50.166;18.908;2024-01-16T06:20:37;39.31;32.72;48.47;;
68599;Laerm;18038;50.166;18.908;2024-01-16T06:23:44;38.91;32.36;49.44;;
68599;Laerm;18038;50.166;18.908;2024-01-16T06:26:55;38.92;33.08;46.43;;
68599;Laerm;18038;50.166;18.908;2024-01-16T06:30:04;38.14;32.58;44.35;;
68599;Laerm;18038;50.166;18.908;2024-01-16T06:33:13;38.14;32.78;45.64;;
68599;Laerm;18038;50.166;18.908;2024-01-16T06:36:23;39.72;33.50;49.11;;
68599;Laerm;18038;50.166;18.908;2024-01-16T06:39:31;41.17;33.65;52.85;;
68599;Laerm;18038;50.166;18.908;2024-01-16T06:42:39;40.50;33.49;49.93;;
68599;Laerm;18038;50.166;18.908;2024-01-16T06:45:47;40.15;33.25;47.08;;
68599;Laerm;18038;50.166;18.908;2024-01-16T06:48:54;39.57;33.61;46.06;;
68599;Laerm;18038;50.166;18.908;2024-01-16T06:52:06;41.27;34.20;47.87;;
68599;Laerm;18038;50.166;18.908;2024-01-16T06:55:14;40.21;35.01;47.50;;
68599;Laerm;18038;50.166;18.908;2024-01-16T06:58:29;39.72;34.61;51.72;;
68599;Laerm;18038;50.166;18.908;2024-01-16T07:01:45;42.78;34.79;57.79;;
68599;Laerm;18038;50.166;18.908;2024-01-16T07:04:53;41.34;33.91;54.42;;
68599;Laerm;18038;50.166;18.908;2024-01-16T07:08:06;42.44;36.04;54.12;;
68599;Laerm;18038;50.166;18.908;2024-01-16T07:11:16;41.03;34.07;55.51;;
68599;Laerm;18038;50.166;18.908;2024-01-16T07:14:26;42.52;33.91;52.84;;
68599;Laerm;18038;50.166;18.908;2024-01-16T07:17:34;41.49;33.86;52.65;;
68599;Laerm;18038;50.166;18.908;2024-01-16T07:20:43;39.91;33.66;50.60;;
68599;Laerm;18038;50.166;18.908;2024-01-16T07:23:55;40.61;34.42;50.81;;
68599;Laerm;18038;50.166;18.908;2024-01-16T07:27:04;39.02;33.99;47.94;;
68599;Laerm;18038;50.166;18.908;2024-01-16T07:30:13;40.42;33.07;58.67;;
68599;Laerm;18038;50.166;18.908;2024-01-16T07:33:44;40.28;34.01;51.32;;
68599;Laerm;18038;50.166;18.908;2024-01-16T07:36:52;40.43;33.65;49.94;;
68599;Laerm;18038;50.166;18.908;2024-01-16T07:40:03;39.93;33.74;48.23;;
68599;Laerm;18038;50.166;18.908;2024-01-16T07:43:13;45.60;33.61;63.26;;
68599;Laerm;18038;50.166;18.908;2024-01-16T07:46:20;38.81;33.01;46.02;;
68599;Laerm;18038;50.166;18.908;2024-01-16T07:49:32;38.72;32.98;48.68;;
68599;Laerm;18038;50.166;18.908;2024-01-16T07:52:41;39.13;33.35;45.81;;
68599;Laerm;18038;50.166;18.908;2024-01-16T07:55:52;40.42;33.46;51.03;;
68599;Laerm;18038;50.166;18.908;2024-01-16T07:58:59;38.95;33.27;48.95;;
68599;Laerm;18038;50.166;18.908;2024-01-16T08:02:07;43.53;32.96;62.34;;
68599;Laerm;18038;50.166;18.908;2024-01-16T08:05:14;39.68;32.93;60.34;;
68599;Laerm;18038;50.166;18.908;2024-01-16T08:08:23;39.79;33.31;48.96;;
68599;Laerm;18038;50.166;18.908;2024-01-16T08:11:32;39.58;33.37;53.20;;
68599;Laerm;18038;50.166;18.908;2024-01-16T08:14:41;40.31;33.66;54.90;;
68599;Laerm;18038;50.166;18.908;2024-01-16T08:17:49;38.43;33.04;47.55;;
68599;Laerm;18038;50.166;18.908;2024-01-16T08:20:57;37.48;32.95;51.40;;
68599;Laerm;18038;50.166;18.908;2024-01-16T08:24:05;39.33;33.13;52.43;;
68599;Laerm;18038;50.166;18.908;2024-01-16T08:27:16;42.46;33.71;53.14;;
68599;Laerm;18038;50.166;18.908;2024-01-16T08:30:23;38.74;34.13;44.99;;
68599;Laerm;18038;50.166;18.908;2024-01-16T08:33:31;40.19;33.90;52.10;;
68599;Laerm;18038;50.166;18.908;2024-01-16T08:36:49;39.63;33.74;51.44;;
68599;Laerm;18038;50.166;18.908;2024-01-16T08:40:02;39.52;33.74;46.07;;
68599;Laerm;18038;50.166;18.908;2024-01-16T08:43:13;39.80;33.94;63.10;;
68599;Laerm;18038;50.166;18.908;2024-01-16T08:46:21;39.67;34.08;46.66;;
68599;Laerm;18038;50.166;18.908;2024-01-16T08:49:29;40.22;33.93;47.88;;
68599;Laerm;18038;50.166;18.908;2024-01-16T08:52:37;40.63;34.32;53.67;;
68599;Laerm;18038;50.166;18.908;2024-01-16T08:55:44;42.89;34.89;53.55;;
68599;Laerm;18038;50.166;18.908;2024-01-16T08:58:54;39.75;34.04;48.22;;
68599;Laerm;18038;50.166;18.908;2024-01-16T09:02:09;39.88;33.87;47.67;;
68599;Laerm;18038;50.166;18.908;2024-01-16T09:05:22;40.97;33.89;53.20;;
68599;Laerm;18038;50.166;18.908;2024-01-16T09:08:33;40.73;33.93;51.81;;
68599;Laerm;18038;50.166;18.908;2024-01-16T09:11:41;40.51;34.04;53.70;;
68599;Laerm;18038;50.166;18.908;2024-01-16T09:14:51;40.68;34.15;51.41;;
68599;Laerm;18038;50.166;18.908;2024-01-16T09:17:59;39.35;33.76;47.82;;
68599;Laerm;18038;50.166;18.908;2024-01-16T09:21:07;39.49;34.01;47.36;;
68599;Laerm;18038;50.166;18.908;2024-01-16T09:24:18;39.52;34.16;47.96;;
68599;Laerm;18038;50.166;18.908;2024-01-16T09:27:32;41.75;34.12;50.60;;
68599;Laerm;18038;50.166;18.908;2024-01-16T09:30:43;40.11;34.38;47.49;;
68599;Laerm;18038;50.166;18.908;2024-01-16T09:33:50;39.41;33.73;49.52;;
68599;Laerm;18038;50.166;18.908;2024-01-16T09:37:07;40.94;34.30;50.32;;
68599;Laerm;18038;50.166;18.908;2024-01-16T09:40:27;41.69;34.59;52.59;;
68599;Laerm;18038;50.166;18.908;2024-01-16T09:43:37;41.33;34.24;50.56;;
68599;Laerm;18038;50.166;18.908;2024-01-16T09:46:50;43.11;34.72;57.28;;
68599;Laerm;18038;50.166;18.908;2024-01-16T09:50:02;41.05;34.79;48.17;;
68599;Laerm;18038;50.166;18.908;2024-01-16T09:53:10;39.80;34.48;45.87;;
68599;Laerm;18038;50.166;18.908;2024-01-16T09:56:22;39.35;34.27;50.68;;
68599;Laerm;18038;50.166;18.908;2024-01-16T09:59:36;41.89;34.04;59.33;;
68599;Laerm;18038;50.166;18.908;2024-01-16T10:02:48;39.52;33.49;52.00;;
68599;Laerm;18038;50.166;18.908;2024-01-16T10:05:57;40.46;33.43;54.70;;
68599;Laerm;18038;50.166;18.908;2024-01-16T10:09:06;39.07;33.94;45.60;;
68599;Laerm;18038;50.166;18.908;2024-01-16T10:12:17;39.96;33.93;50.82;;
68599;Laerm;18038;50.166;18.908;2024-01-16T10:15:25;39.54;33.81;52.04;;
68599;Laerm;18038;50.166;18.908;2024-01-16T10:18:35;37.79;33.17;49.21;;
68599;Laerm;18038;50.166;18.908;2024-01-16T10:21:44;40.26;33.38;56.07;;
68599;Laerm;18038;50.166;18.908;2024-01-16T10:25:05;43.34;33.13;66.11;;
68599;Laerm;18038;50.166;18.908;2024-01-16T10:28:20;40.22;33.13;54.73;;
68599;Laerm;18038;50.166;18.908;2024-01-16T10:31:30;38.45;32.66;55.75;;
68599;Laerm;18038;50.166;18.908;2024-01-16T10:34:41;40.28;32.59;54.83;;
68599;Laerm;18038;50.166;18.908;2024-01-16T10:37:51;39.60;33.29;54.77;;
68599;Laerm;18038;50.166;18.908;2024-01-16T10:41:08;40.04;33.54;51.56;;
68599;Laerm;18038;50.166;18.908;2024-01-16T10:44:17;42.19;33.18;60.63;;
68599;Laerm;18038;50.166;18.908;2024-01-16T10:47:25;42.56;32.63;61.48;;
68599;Laerm;18038;50.166;18.908;2024-01-16T10:50:37;49.62;33.83;65.19;;
68599;Laerm;18038;50.166;18.908;2024-01-16T10:53:46;41.76;32.86;65.39;;
68599;Laerm;18038;50.166;18.908;2024-01-16T10:56:58;43.30;32.91;62.13;;
68599;Laerm;18038;50.166;18.908;2024-01-16T11:00:12;38.74;32.83;52.41;;
68599;Laerm;18038;50.166;18.908;2024-01-16T11:03:29;40.08;34.39;49.73;;
68599;Laerm;18038;50.166;18.908;2024-01-16T11:06:45;39.79;33.44;52.92;;
68599;Laerm;18038;50.166;18.908;2024-01-16T11:09:54;38.65;33.59;44.46;;
68599;Laerm;18038;50.166;18.908;2024-01-16T11:13:06;38.69;33.88;51.41;;
68599;Laerm;18038;50.166;18.908;2024-01-16T11:16:14;37.55;33.27;53.71;;
68599;Laerm;18038;50.166;18.908;2024-01-16T11:19:24;44.10;33.26;65.00;;
68599;Laerm;18038;50.166;18.908;2024-01-16T11:22:56;45.54;34.43;67.81;;
68599;Laerm;18038;50.166;18.908;2024-01-16T11:26:27;41.41;34.52;61.44;;
68599;Laerm;18038;50.166;18.908;2024-01-16T11:29:37;42.22;34.58;60.46;;
68599;Laerm;18038;50.166;18.908;2024-01-16T11:32:46;41.51;34.57;57.33;;
68599;Laerm;18038;50.166;18.908;2024-01-16T11:35:53;43.65;34.18;63.44;;
68599;Laerm;18038;50.166;18.908;2024-01-16T11:39:06;44.16;34.01;60.94;;
68599;Laerm;18038;50.166;18.908;2024-01-16T11:42:26;39.44;33.80;51.96;;
68599;Laerm;18038;50.166;18.908;2024-01-16T11:45:50;40.15;33.66;50.62;;
68599;Laerm;18038;50.166;18.908;2024-01-16T11:49:02;39.36;33.90;46.88;;
68599;Laerm;18038;50.166;18.908;2024-01-16T11:52:10;40.36;33.80;49.29;;
68599;Laerm;18038;50.166;18.908;2024-01-16T11:55:33;39.35;34.13;52.77;;
68599;Laerm;18038;50.166;18.908;2024-01-16T11:58:57;41.80;34.19;54.42;;
68599;Laerm;18038;50.166;18.908;2024-01-16T12:02:20;40.33;34.17;51.68;;
68599;Laerm;18038;50.166;18.908;2024-01-16T12:05:29;40.57;34.85;51.50;;
68599;Laerm;18038;50.166;18.908;2024-01-16T12:08:36;39.52;34.27;50.28;;
68599;Laerm;18038;50.166;18.908;2024-01-16T12:11:56;39.93;33.85;47.80;;
68599;Laerm;18038;50.166;18.908;2024-01-16T12:15:06;40.27;33.71;65.36;;
68599;Laerm;18038;50.166;18.908;2024-01-16T12:18:19;39.03;33.49;48.49;;
68599;Laerm;18038;50.166;18.908;2024-01-16T12:21:44;38.73;33.40;48.94;;
68599;Laerm;18038;50.166;18.908;2024-01-16T12:24:56;38.79;33.03;51.93;;
68599;Laerm;18038;50.166;18.908;2024-01-16T12:28:11;42.10;32.73;63.06;;
68599;Laerm;18038;50.166;18.908;2024-01-16T12:31:38;38.22;32.84;46.22;;
68599;Laerm;18038;50.166;18.908;2024-01-16T12:34:47;43.29;33.76;58.46;;
68599;Laerm;18038;50.166;18.908;2024-01-16T12:38:08;40.72;33.20;50.85;;
68599;Laerm;18038;50.166;18.908;2024-01-16T12:41:16;42.25;33.71;52.83;;
68599;Laerm;18038;50.166;18.908;2024-01-16T12:44:42;41.76;33.06;58.43;;
68599;Laerm;18038;50.166;18.908;2024-01-16T12:47:55;39.33;32.87;49.99;;
68599;Laerm;18038;50.166;18.908;2024-01-16T12:51:06;39.09;32.69;48.35;;
68599;Laerm;18038;50.166;18.908;2024-01-16T12:54:17;39.18;33.54;49.43;;
68599;Laerm;18038;50.166;18.908;2024-01-16T12:57:33;40.00;32.45;52.92;;
68599;Laerm;18038;50.166;18.908;2024-01-16T13:00:44;39.53;32.45;54.40;;
68599;Laerm;18038;50.166;18.908;2024-01-16T13:03:52;38.59;32.84;48.18;;
68599;Laerm;18038;50.166;18.908;2024-01-16T13:07:02;40.08;33.50;51.60;;
68599;Laerm;18038;50.166;18.908;2024-01-16T13:10:12;39.18;33.27;47.77;;
68599;Laerm;18038;50.166;18.908;2024-01-16T13:13:25;41.57;33.75;54.92;;
68599;Laerm;18038;50.166;18.908;2024-01-16T13:16:36;41.33;33.97;58.06;;
68599;Laerm;18038;50.166;18.908;2024-01-16T13:19:44;41.69;34.95;51.50;;
68599;Laerm;18038;50.166;18.908;2024-01-16T13:22:52;41.13;34.68;51.46;;
68599;Laerm;18038;50.166;18.908;2024-01-16T13:25:59;41.12;34.56;53.79;;
68599;Laerm;18038;50.166;18.908;2024-01-16T13:29:08;41.45;34.34;48.37;;
68599;Laerm;18038;50.166;18.908;2024-01-16T13:32:19;39.93;34.32;46.34;;
68599;Laerm;18038;50.166;18.908;2024-01-16T13:35:28;40.97;34.35;47.14;;
68599;Laerm;18038;50.166;18.908;2024-01-16T13:38:35;39.83;34.46;50.31;;
68599;Laerm;18038;50.166;18.908;2024-01-16T13:41:43;39.89;34.19;46.87;;
68599;Laerm;18038;50.166;18.908;2024-01-16T13:44:51;40.76;34.73;46.44;;
68599;Laerm;18038;50.166;18.908;2024-01-16T13:48:04;40.66;35.34;47.59;;
68599;Laerm;18038;50.166;18.908;2024-01-16T13:51:12;40.86;34.99;51.11;;
68599;Laerm;18038;50.166;18.908;2024-01-16T13:54:20;40.37;34.45;47.17;;
68599;Laerm;18038;50.166;18.908;2024-01-16T13:57:28;40.46;35.27;48.20;;
68599;Laerm;18038;50.166;18.908;2024-01-16T14:00:36;40.72;34.86;47.34;;
68599;Laerm;18038;50.166;18.908;2024-01-16T14:03:45;40.77;35.05;46.77;;
68599;Laerm;18038;50.166;18.908;2024-01-16T14:06:55;41.47;34.52;52.25;;
68599;Laerm;18038;50.166;18.908;2024-01-16T14:10:18;40.36;33.80;45.79;;
68599;Laerm;18038;50.166;18.908;2024-01-16T14:13:26;41.41;34.64;50.29;;
68599;Laerm;18038;50.166;18.908;2024-01-16T14:16:33;40.41;34.26;46.18;;
68599;Laerm;18038;50.166;18.908;2024-01-16T14:20:00;39.52;34.20;46.31;;
68599;Laerm;18038;50.166;18.908;2024-01-16T14:23:09;40.48;34.51;46.65;;
68599;Laerm;18038;50.166;18.908;2024-01-16T14:26:17;40.12;33.79;51.03;;
68599;Laerm;18038;50.166;18.908;2024-01-16T14:29:25;41.45;34.28;59.32;;
68599;Laerm;18038;50.166;18.908;2024-01-16T14:32:34;40.10;34.30;49.70;;
68599;Laerm;18038;50.166;18.908;2024-01-16T14:35:44;40.20;34.34;53.42;;
68599;Laerm;18038;50.166;18.908;2024-01-16T14:38:53;42.74;33.94;56.52;;
68599;Laerm;18038;50.166;18.908;2024-01-16T14:42:00;40.16;33.58;53.78;;
68599;Laerm;18038;50.166;18.908;2024-01-16T14:45:09;39.64;33.61;47.70;;
68599;Laerm;18038;50.166;18.908;2024-01-16T14:48:17;39.81;33.93;50.37;;
68599;Laerm;18038;50.166;18.908;2024-01-16T14:51:28;39.74;33.51;49.99;;
68599;Laerm;18038;50.166;18.908;2024-01-16T14:54:35;39.88;34.52;50.54;;
68599;Laerm;18038;50.166;18.908;2024-01-16T14:57:43;40.84;34.09;59.02;;
68599;Laerm;18038;50.166;18.908;2024-01-16T15:00:56;38.50;33.46;46.03;;
68599;Laerm;18038;50.166;18.908;2024-01-16T15:04:04;39.05;33.43;45.00;;
68599;Laerm;18038;50.166;18.908;2024-01-16T15:07:15;39.14;33.60;49.15;;
68599;Laerm;18038;50.166;18.908;2024-01-16T15:10:23;39.16;34.89;46.74;;
68599;Laerm;18038;50.166;18.908;2024-01-16T15:13:30;39.21;33.53;44.75;;
68599;Laerm;18038;50.166;18.908;2024-01-16T15:16:38;38.42;33.87;46.19;;
68599;Laerm;18038;50.166;18.908;2024-01-16T15:19:45;38.89;33.48;44.97;;
68599;Laerm;18038;50.166;18.908;2024-01-16T15:22:56;38.40;33.30;46.49;;
68599;Laerm;18038;50.166;18.908;2024-01-16T15:26:17;42.97;33.52;54.85;;
68599;Laerm;18038;50.166;18.908;2024-01-16T15:29:31;38.01;33.78;45.86;;
68599;Laerm;18038;50.166;18.908;2024-01-16T15:32:38;38.88;33.72;46.57;;
68599;Laerm;18038;50.166;18.908;2024-01-16T15:35:47;37.83;33.12;53.66;;
68599;Laerm;18038;50.166;18.908;2024-01-16T15:38:57;38.13;33.22;47.62;;
68599;Laerm;18038;50.166;18.908;2024-01-16T15:42:07;36.63;33.07;44.72;;
68599;Laerm;18038;50.166;18.908;2024-01-16T15:45:15;38.08;33.32;43.32;;
68599;Laerm;18038;50.166;18.908;2024-01-16T15:48:23;37.93;33.35;45.16;;
68599;Laerm;18038;50.166;18.908;2024-01-16T15:51:37;39.41;33.43;51.04;;
68599;Laerm;18038;50.166;18.908;2024-01-16T15:54:54;37.86;33.01;49.49;;
68599;Laerm;18038;50.166;18.908;2024-01-16T15:58:02;39.47;33.15;54.04;;
68599;Laerm;18038;50.166;18.908;2024-01-16T16:01:10;42.59;33.20;65.02;;
68599;Laerm;18038;50.166;18.908;2024-01-16T16:04:18;49.37;33.03;69.81;;
68599;Laerm;18038;50.166;18.908;2024-01-16T16:07:26;37.42;33.17;50.85;;
68599;Laerm;18038;50.166;18.908;2024-01-16T16:10:38;37.88;32.75;47.58;;
68599;Laerm;18038;50.166;18.908;2024-01-16T16:13:46;36.31;33.05;45.60;;
68599;Laerm;18038;50.166;18.908;2024-01-16T16:16:54;38.19;33.67;45.69;;
68599;Laerm;18038;50.166;18.908;2024-01-16T16:20:08;37.40;33.02;44.10;;
68599;Laerm;18038;50.166;18.908;2024-01-16T16:23:16;37.98;32.94;47.91;;
68599;Laerm;18038;50.166;18.908;2024-01-16T16:26:55;37.95;32.87;46.98;;
68599;Laerm;18038;50.166;18.908;2024-01-16T16:30:13;37.08;32.96;44.61;;
68599;Laerm;18038;50.166;18.908;2024-01-16T16:33:21;37.31;32.93;45.67;;
68599;Laerm;18038;50.166;18.908;2024-01-16T16:36:29;36.94;33.08;43.40;;
68599;Laerm;18038;50.166;18.908;2024-01-16T16:39:38;36.95;32.88;45.08;;
68599;Laerm;18038;50.166;18.908;2024-01-16T16:42:47;38.60;33.49;46.05;;
68599;Laerm;18038;50.166;18.908;2024-01-16T16:45:55;37.97;32.41;45.58;;
68599;Laerm;18038;50.166;18.908;2024-01-16T16:49:03;37.10;32.84;45.59;;
68599;Laerm;18038;50.166;18.908;2024-01-16T16:52:11;37.03;32.68;45.99;;
68599;Laerm;18038;50.166;18.908;2024-01-16T16:55:19;37.02;32.52;44.46;;
68599;Laerm;18038;50.166;18.908;2024-01-16T16:58:29;36.58;32.25;47.01;;
68599;Laerm;18038;50.166;18.908;2024-01-16T17:01:37;37.77;32.47;45.00;;
68599;Laerm;18038;50.166;18.908;2024-01-16T17:04:46;37.44;32.24;46.69;;
68599;Laerm;18038;50.166;18.908;2024-01-16T17:07:53;37.52;32.45;48.41;;
68599;Laerm;18038;50.166;18.908;2024-01-16T17:11:02;37.03;32.29;45.37;;
68599;Laerm;18038;50.166;18.908;2024-01-16T17:14:15;36.37;32.46;45.00;;
68599;Laerm;18038;50.166;18.908;2024-01-16T17:17:23;36.29;32.28;43.36;;
68599;Laerm;18038;50.166;18.908;2024-01-16T17:20:31;38.20;32.48;50.73;;
68599;Laerm;18038;50.166;18.908;2024-01-16T17:23:39;36.97;32.36;42.58;;
68599;Laerm;18038;50.166;18.908;2024-01-16T17:26:48;37.28;32.28;48.15;;
68599;Laerm;18038;50.166;18.908;2024-01-16T17:29:58;35.94;32.21;45.46;;